This is the latest recevied weather packets stored in our database for station/object G4CVN. If no packets are shown the sender has not sent any weather packets the latest 10 day(s).
| Time | Temp. | Humidity | Pressure | Rain* | Wind** | Luminosity | Snow |
|---|---|---|---|---|---|---|---|
| 1778024717 | 11.67° C | 77% | 1016.3 hPa | 0 mm | - | 0 W/m² | - |
| 1778024117 | 11.67° C | 76% | 1016.2 hPa | 0 mm | - | 0 W/m² | - |
| 1778021717 | 11.67° C | 74% | 1016.3 hPa | 0 mm | - | 0 W/m² | - |
| 1778020517 | 12.22° C | 73% | 1016.3 hPa | 0 mm | - | 0 W/m² | - |
| 1777999517 | 16.11° C | 52% | 1014.8 hPa | 0 mm | - | 66 W/m² | - |
| 1777994717 | 17.22° C | 53% | 1015.1 hPa | 0 mm | - | 117 W/m² | - |
| 1777991737 | 17.78° C | 52% | 1015.2 hPa | 0 mm | - | 154 W/m² | - |
| 1777989917 | 17.78° C | 53% | 1015.3 hPa | 0 mm | - | 162 W/m² | - |
| 1777985719 | 20.56° C | 50% | 1015.5 hPa | 0 mm | - | 262 W/m² | - |
| 1777983917 | 19.44° C | 54% | 1015.7 hPa | 0 mm | - | 862 W/m² | - |
| 1777971917 | 16.11° C | 71% | 1016.5 hPa | 0 mm | - | 398 W/m² | - |
| 1777971317 | 15.56° C | 66% | 1016.5 hPa | 0 mm | - | 248 W/m² | - |
| 1777968917 | 15° C | 71% | 1016.5 hPa | 0 mm | - | 239 W/m² | - |
| 1777967717 | 13.89° C | 77% | 1016.5 hPa | 0 mm | - | 453 W/m² | - |
| 1777967117 | 13.33° C | 78% | 1016.6 hPa | 0 mm | - | 382 W/m² | - |
| 1777962937 | 12.22° C | 88% | 1016.8 hPa | 0 mm | - | 91 W/m² | - |
| 1777960517 | 12.22° C | 89% | 1016.8 hPa | 0 mm | - | 58 W/m² | - |
| 1777959937 | 11.67° C | 90% | 1016.8 hPa | 0 mm | - | 52 W/m² | - |
| 1777951517 | 11.67° C | 90% | 1017.2 hPa | 0 mm | - | 0 W/m² | - |
| 1777950317 | 11.67° C | 90% | 1017.2 hPa | 0 mm | - | 0 W/m² | - |
| 1777941337 | 12.78° C | 91% | 1018 hPa | 0 mm | - | 0 W/m² | - |
| 1777938915 | 12.78° C | 92% | 1018 hPa | 0 mm | - | 0 W/m² | - |
| 1777938315 | 12.22° C | 92% | 1018.1 hPa | 0 mm | - | 0 W/m² | - |
| 1777937116 | 12.22° C | 90% | 1018 hPa | 0 mm | - | 0 W/m² | - |
| 1777935916 | 12.22° C | 90% | 1018 hPa | 0 mm | - | 0 W/m² | - |
* Rain latest hour (hover to see other rain measurements)
** Current wind speed in m/s (hover to see current wind gust speed)